Huvudsida
METAR-TAF:

METAR-TAF

Flygplatser :

Tahiti, Franska Polynesien

latitud: 17-33S, longitud: 149-37W, höjd: 2 m

Aktuellt väderrapport

Denna rapport gjordes för 36 minuter sedan, klockan 05:30 UTC
Vind 6 kt från nordost
Temperatur 28°C
Fuktighet 74%
Tryck 1010 hPa
Sikt 10 km eller mer
Få moln på en höjd av 2000 ft
Spridda moln på en höjd av 26000 ft

METAR: NTAA 160530Z 05006KT 9999 FEW020 SCT260 28/23 Q1010 NOSIG

Tid: 20:06 (06:06 UTC)

Väderprognos

Denna rapport gjordes för 1 timme och 6 minuter sedan, klockan 05:00 UTC
Prognos gäller från 16 kl. 06 UTC till 17 kl. 12 UTC
Vind 5 kt från nord/nordost
Sikt 10 km eller mer
Få moln på en höjd av 2300 ft
Spridda moln på en höjd av 5000 ft
Blir
från 16 kl. 18 UTC till 16 kl. 20 UTC
Vind 15 kt från nord/nordost
Blir
från 17 kl. 04 UTC till 17 kl. 06 UTC
Vind 5 kt från nord/nordost

TAF: NTAA 160500Z 1606/1712 03005KT 9999 FEW023 SCT050 BECMG 1618/1620 02015KT BECMG 1704/1706 03005KT

Aktuella väderrapporter och prognoser från 4000 flygplatser (METAR- och TAF-rapporter).

De tillgängliga stationerna syns som gula och röda prickar på kartan.

För musen över prickarna för att se namnen på stationerna.

Klicka sedan för att få väderrapporter och prognoser.

För att ändra kartan: Klicka på de gröna knapparna med ett svart kors på för att zooma in; den gröna knappen med ett streck på för att zooma ut; eller på de gröna pilarna för angränsande kartor.


METAR-TAF: